createdAt,value
2022-07-25T00:00:53.567Z,64.36
2022-07-25T00:03:23.286Z,65.12
2022-07-25T00:05:55.589Z,65.11
2022-07-25T00:08:25.252Z,65.09
2022-07-25T00:10:54.941Z,64.54
2022-07-25T00:13:24.667Z,65.69
2022-07-25T00:15:54.511Z,65.77
2022-07-25T00:18:24.144Z,66.57
2022-07-25T00:20:56.537Z,66.53
2022-07-25T00:23:26.174Z,66.67
2022-07-25T00:25:55.855Z,66.82
2022-07-25T00:28:25.510Z,66.51
2022-07-25T00:30:55.385Z,66.64
2022-07-25T00:33:25.107Z,67.63
2022-07-25T00:35:57.359Z,66.96
2022-07-25T00:38:27.018Z,66.96
2022-07-25T00:40:57.417Z,66.40
2022-07-25T00:43:27.082Z,66.17
2022-07-25T00:45:59.308Z,67.92
2022-07-25T00:48:29.279Z,67.53
2022-07-25T00:51:01.749Z,66.97
2022-07-25T00:53:31.627Z,66.90
2022-07-25T00:56:01.324Z,67.69
2022-07-25T00:58:31.031Z,68.29
2022-07-25T01:01:01.167Z,68.86
2022-07-25T01:03:31.186Z,68.77
2022-07-25T01:06:03.519Z,68.88
2022-07-25T01:08:33.713Z,67.96
2022-07-25T01:11:03.608Z,68.78
2022-07-25T01:13:35.829Z,70.42
2022-07-25T01:16:05.545Z,69.70
2022-07-25T01:18:35.260Z,69.69
2022-07-25T01:21:07.912Z,70.31
2022-07-25T01:23:37.615Z,69.05
2022-07-25T01:26:07.446Z,68.50
2022-07-25T01:28:37.110Z,69.55
2022-07-25T01:31:06.844Z,69.75
2022-07-25T01:33:36.537Z,70.64
2022-07-25T01:36:09.356Z,69.27
2022-07-25T01:38:39.048Z,69.95
2022-07-25T01:41:09.221Z,69.81
2022-07-25T01:43:38.973Z,68.94
2022-07-25T01:46:09.097Z,68.58
2022-07-25T01:48:38.923Z,68.69
2022-07-25T01:51:11.997Z,68.36
2022-07-25T01:53:41.866Z,68.31
2022-07-25T01:56:14.264Z,67.91
2022-07-25T01:58:44.072Z,68.55
2022-07-25T02:01:13.815Z,67.72
2022-07-25T02:03:43.580Z,68.08
2022-07-25T02:06:15.834Z,67.84
2022-07-25T02:08:45.551Z,67.27
2022-07-25T02:11:15.213Z,67.67
2022-07-25T02:13:44.920Z,67.99
2022-07-25T02:16:15.429Z,67.85
2022-07-25T02:18:45.964Z,68.41
2022-07-25T02:21:19.990Z,68.94
2022-07-25T02:23:49.872Z,68.80
2022-07-25T02:26:19.530Z,68.92
2022-07-25T02:28:49.236Z,70.13
2022-07-25T02:31:19.407Z,69.79
2022-07-25T02:33:49.303Z,69.50
2022-07-25T02:36:21.591Z,69.97
2022-07-25T02:38:51.446Z,69.57
2022-07-25T02:41:21.124Z,69.50
2022-07-25T02:43:50.838Z,68.92
2022-07-25T02:46:20.606Z,68.93
2022-07-25T02:48:50.591Z,69.48
2022-07-25T02:51:22.893Z,70.11
2022-07-25T02:54:08.871Z,69.68
2022-07-25T02:56:38.592Z,69.03
2022-07-25T02:59:08.407Z,70.04
2022-07-25T03:01:38.053Z,69.95
2022-07-25T03:04:08.801Z,69.66
2022-07-25T03:06:41.479Z,69.79
2022-07-25T03:09:11.164Z,69.92
2022-07-25T03:11:40.754Z,69.31
2022-07-25T03:14:11.095Z,69.83
2022-07-25T03:16:41.011Z,69.24
2022-07-25T03:19:12.978Z,69.84
2022-07-25T03:21:46.232Z,70.74
2022-07-25T03:24:15.933Z,71.59
2022-07-25T03:26:45.879Z,71.16
2022-07-25T03:29:15.574Z,71.33
2022-07-25T03:31:45.262Z,71.32
2022-07-25T03:34:15.000Z,70.78
2022-07-25T03:36:47.356Z,71.45
2022-07-25T03:39:17.307Z,71.88
2022-07-25T03:41:47.045Z,72.45
2022-07-25T03:44:16.854Z,73.46
2022-07-25T03:46:46.542Z,73.51
2022-07-25T03:49:16.233Z,73.51
2022-07-25T03:51:48.549Z,74.57
2022-07-25T03:54:18.280Z,74.65
2022-07-25T03:56:50.898Z,74.37
2022-07-25T03:59:22.709Z,74.72
2022-07-25T04:01:53.466Z,74.87
2022-07-25T04:04:23.203Z,73.86
2022-07-25T04:06:55.534Z,74.18
2022-07-25T04:09:25.227Z,74.98
2022-07-25T04:11:54.944Z,75.17
2022-07-25T04:14:25.038Z,75.12
2022-07-25T04:16:54.792Z,75.89
2022-07-25T04:19:24.546Z,75.78
2022-07-25T04:21:58.973Z,76.40
2022-07-25T04:24:28.630Z,74.51
2022-07-25T04:26:58.451Z,74.72
2022-07-25T04:29:28.138Z,74.65
2022-07-25T04:31:58.216Z,74.51
2022-07-25T04:34:28.238Z,73.56
2022-07-25T04:37:00.462Z,73.12
2022-07-25T04:39:30.335Z,73.50
2022-07-25T04:42:00.086Z,73.60
2022-07-25T04:44:29.851Z,72.73
2022-07-25T04:46:59.475Z,72.72
2022-07-25T04:49:29.232Z,71.36
2022-07-25T04:52:01.486Z,73.35
2022-07-25T04:54:31.912Z,72.54
2022-07-25T04:57:01.747Z,72.27
2022-07-25T04:59:31.385Z,72.75
2022-07-25T05:02:01.051Z,73.20
2022-07-25T05:04:30.701Z,73.86
2022-07-25T05:07:03.726Z,74.86
2022-07-25T05:09:33.385Z,75.26
2022-07-25T05:12:03.064Z,74.70
2022-07-25T05:14:32.798Z,74.20
2022-07-25T05:17:02.529Z,74.03
2022-07-25T05:19:32.173Z,74.08
2022-07-25T05:22:04.762Z,72.93
2022-07-25T05:24:37.307Z,71.50
2022-07-25T05:27:08.860Z,64.73
2022-07-25T05:29:38.558Z,56.36
2022-07-25T05:32:09.085Z,50.47
2022-07-25T05:34:38.773Z,47.03
2022-07-25T05:37:11.073Z,44.69
2022-07-25T05:39:40.740Z,41.34
2022-07-25T05:42:10.599Z,40.83
2022-07-25T05:44:40.370Z,38.65
2022-07-25T05:47:12.382Z,37.78
2022-07-25T05:49:42.371Z,39.35
2022-07-25T05:52:14.644Z,38.36
2022-07-25T05:54:44.370Z,38.68
2022-07-25T05:57:13.974Z,38.41
2022-07-25T05:59:43.723Z,36.22
2022-07-25T06:02:13.457Z,36.18
2022-07-25T06:04:43.209Z,37.42
2022-07-25T06:07:16.928Z,37.55
2022-07-25T06:09:46.762Z,37.74
2022-07-25T06:12:16.924Z,39.71
2022-07-25T06:14:47.124Z,41.73
2022-07-25T06:17:17.321Z,43.64
2022-07-25T06:19:46.959Z,47.85
2022-07-25T06:22:19.757Z,49.66
2022-07-25T06:24:49.360Z,51.03
2022-07-25T06:27:21.653Z,51.51
2022-07-25T06:29:52.840Z,51.94
2022-07-25T06:32:22.621Z,53.44
2022-07-25T06:34:52.288Z,54.29
2022-07-25T06:37:24.562Z,53.69
2022-07-25T06:39:54.380Z,53.14
2022-07-25T06:42:24.077Z,51.82
2022-07-25T06:44:53.730Z,52.18
2022-07-25T06:47:23.383Z,50.36
2022-07-25T06:49:53.180Z,50.45
2022-07-25T06:52:25.489Z,49.88
2022-07-25T06:54:55.143Z,49.45
2022-07-25T06:57:24.787Z,49.03
2022-07-25T06:59:54.563Z,48.99
2022-07-25T07:02:24.461Z,49.32
2022-07-25T07:04:54.144Z,48.56
2022-07-25T07:07:26.937Z,48.77
2022-07-25T07:09:56.635Z,47.79
2022-07-25T07:12:26.232Z,47.55
2022-07-25T07:14:55.947Z,47.19
2022-07-25T07:17:25.627Z,46.87
2022-07-25T07:19:55.313Z,47.21
2022-07-25T07:22:27.578Z,46.43
2022-07-25T07:24:57.621Z,45.83
2022-07-25T07:27:27.291Z,47.03
2022-07-25T07:29:57.016Z,44.89
2022-07-25T07:32:26.796Z,44.69
2022-07-25T07:34:56.438Z,44.66
2022-07-25T07:37:35.058Z,43.81
2022-07-25T07:40:07.037Z,43.54
2022-07-25T07:42:41.698Z,44.47
2022-07-25T07:45:16.039Z,43.64
2022-07-25T07:47:48.124Z,41.59
2022-07-25T07:50:19.093Z,41.44
2022-07-25T07:52:52.866Z,41.04
2022-07-25T07:55:35.622Z,40.30
2022-07-25T07:58:05.720Z,40.23
2022-07-25T08:00:36.350Z,41.09
2022-07-25T08:03:06.818Z,39.47
2022-07-25T08:05:39.909Z,39.67
2022-07-25T08:08:13.800Z,39.26
2022-07-25T08:10:45.341Z,40.10
2022-07-25T08:13:17.062Z,39.71
2022-07-25T08:15:49.747Z,39.12
2022-07-25T08:18:19.600Z,39.00
2022-07-25T08:20:49.733Z,38.75
2022-07-25T08:23:22.546Z,39.16
2022-07-25T08:25:52.270Z,39.00
2022-07-25T08:28:22.777Z,38.47
2022-07-25T08:30:52.611Z,38.05
2022-07-25T08:33:22.420Z,38.90
2022-07-25T08:35:53.881Z,38.92
2022-07-25T08:38:27.812Z,39.10
2022-07-25T08:40:58.882Z,38.66
2022-07-25T08:43:29.441Z,38.22
2022-07-25T08:45:59.243Z,38.29
2022-07-25T08:48:29.942Z,38.87
2022-07-25T08:51:00.520Z,39.53
2022-07-25T08:53:34.330Z,37.51
2022-07-25T08:56:11.508Z,36.94
2022-07-25T08:58:43.942Z,37.74
2022-07-25T09:01:14.706Z,38.69
2022-07-25T09:03:45.184Z,38.23
2022-07-25T09:06:20.807Z,37.40
2022-07-25T09:08:58.018Z,37.97
2022-07-25T09:11:32.859Z,37.99
2022-07-25T09:14:08.320Z,39.05
2022-07-25T09:16:40.880Z,37.27
2022-07-25T09:19:15.825Z,38.20
2022-07-25T09:21:47.618Z,38.26
2022-07-25T09:24:22.817Z,37.94
2022-07-25T09:26:55.462Z,38.05
2022-07-25T09:29:26.504Z,37.71
2022-07-25T09:31:58.277Z,36.63
2022-07-25T09:34:36.834Z,36.95
2022-07-25T09:37:08.010Z,36.74
2022-07-25T09:39:46.842Z,36.51
2022-07-25T09:42:23.183Z,36.52
2022-07-25T09:45:11.428Z,37.14
2022-07-25T09:47:55.117Z,36.86
2022-07-25T09:50:26.951Z,36.12
2022-07-25T09:52:58.613Z,35.87
2022-07-25T09:55:31.552Z,35.69
2022-07-25T09:58:01.647Z,35.95
2022-07-25T10:00:32.036Z,36.39
2022-07-25T10:03:15.260Z,35.46
2022-07-25T10:06:01.231Z,34.78
2022-07-25T10:08:32.005Z,34.51
2022-07-25T10:11:05.364Z,34.41
2022-07-25T10:13:39.298Z,33.33
2022-07-25T10:16:18.473Z,34.25
2022-07-25T10:18:52.931Z,33.55
2022-07-25T10:21:26.672Z,34.03
2022-07-25T10:24:07.090Z,33.82
2022-07-25T10:26:41.298Z,33.06
2022-07-25T10:29:11.893Z,32.95
2022-07-25T10:31:50.447Z,32.21
2022-07-25T10:34:33.240Z,32.64
2022-07-25T10:37:13.387Z,33.24
2022-07-25T10:39:44.882Z,33.68
2022-07-25T10:42:19.550Z,32.68
2022-07-25T10:44:52.272Z,33.07
2022-07-25T10:47:28.877Z,32.26
2022-07-25T10:50:29.775Z,31.08
2022-07-25T10:53:01.767Z,31.12
2022-07-25T10:55:32.111Z,30.93
2022-07-25T10:58:17.911Z,32.31
2022-07-25T11:00:48.029Z,31.11
2022-07-25T11:03:18.798Z,31.27
2022-07-25T11:05:49.758Z,31.12
2022-07-25T11:08:22.223Z,30.32
2022-07-25T11:10:55.186Z,30.41
2022-07-25T11:13:27.583Z,30.41
2022-07-25T11:16:00.643Z,30.20
2022-07-25T11:18:37.769Z,30.66
2022-07-25T11:21:09.513Z,29.96
2022-07-25T11:23:39.424Z,29.31
2022-07-25T11:26:11.201Z,29.89
2022-07-25T11:28:48.122Z,30.45
2022-07-25T11:31:19.299Z,30.55
2022-07-25T11:33:52.181Z,30.79
2022-07-25T11:36:22.227Z,29.12
2022-07-25T11:38:52.628Z,29.46
2022-07-25T11:41:31.445Z,28.77
2022-07-25T11:44:03.762Z,28.08
2022-07-25T11:46:44.928Z,29.54
2022-07-25T11:49:15.239Z,31.07
2022-07-25T11:51:46.922Z,30.00
2022-07-25T11:54:16.854Z,30.71
2022-07-25T11:56:47.511Z,29.98
2022-07-25T11:59:20.029Z,30.19
2022-07-25T12:01:50.324Z,30.28
2022-07-25T12:04:22.089Z,28.55
2022-07-25T12:06:52.580Z,29.87
2022-07-25T12:09:24.909Z,29.36
2022-07-25T12:12:06.155Z,29.04
2022-07-25T12:14:47.714Z,30.13
2022-07-25T12:17:17.444Z,29.56
2022-07-25T12:19:48.075Z,30.45
2022-07-25T12:22:17.741Z,30.29
2022-07-25T12:24:47.432Z,29.86
2022-07-25T12:27:17.138Z,30.97
2022-07-25T12:29:49.552Z,31.18
2022-07-25T12:32:19.282Z,29.38
2022-07-25T12:34:49.009Z,32.25
2022-07-25T12:37:18.819Z,32.33
2022-07-25T12:39:48.510Z,31.72
2022-07-25T12:42:18.368Z,30.78
2022-07-25T12:44:53.457Z,30.52
2022-07-25T12:47:23.079Z,30.60
2022-07-25T12:49:54.025Z,30.61
2022-07-25T12:52:24.136Z,30.39
2022-07-25T12:54:53.985Z,30.36
2022-07-25T12:57:23.599Z,30.62
2022-07-25T12:59:55.973Z,30.95
2022-07-25T13:02:25.681Z,30.73
2022-07-25T13:04:55.441Z,31.42
2022-07-25T13:07:25.170Z,31.73
2022-07-25T13:09:54.889Z,32.21
2022-07-25T13:12:25.314Z,32.51
2022-07-25T13:14:57.683Z,33.03
2022-07-25T13:17:28.066Z,32.49
2022-07-25T13:19:59.518Z,33.26
2022-07-25T13:22:30.241Z,32.77
2022-07-25T13:24:59.905Z,32.51
2022-07-25T13:27:29.520Z,32.79
2022-07-25T13:30:01.809Z,32.61
2022-07-25T13:32:31.974Z,33.04
2022-07-25T13:35:01.647Z,33.33
2022-07-25T13:37:31.386Z,33.15
2022-07-25T13:40:01.138Z,33.48
2022-07-25T13:42:31.045Z,34.25
2022-07-25T13:45:03.734Z,34.29
2022-07-25T13:47:36.278Z,34.48
2022-07-25T13:50:06.251Z,34.25
2022-07-25T13:52:35.913Z,33.80
2022-07-25T13:55:05.522Z,33.87
2022-07-25T13:57:35.691Z,34.35
2022-07-25T14:00:09.730Z,33.98
2022-07-25T14:02:39.393Z,34.08
2022-07-25T14:05:10.055Z,34.09
2022-07-25T14:07:40.074Z,34.66
2022-07-25T14:10:10.454Z,35.03
2022-07-25T14:12:40.408Z,35.20
2022-07-25T14:15:13.856Z,35.77
2022-07-25T14:17:43.491Z,35.01
2022-07-25T14:20:14.458Z,34.63
2022-07-25T14:22:44.568Z,33.12
2022-07-25T14:25:15.039Z,33.77
2022-07-25T14:27:45.278Z,34.74
2022-07-25T14:30:17.878Z,34.53
2022-07-25T14:32:47.538Z,34.73
2022-07-25T14:35:17.184Z,34.54
2022-07-25T14:37:47.495Z,35.75
2022-07-25T14:40:17.715Z,35.90
2022-07-25T14:42:47.450Z,36.71
2022-07-25T14:45:21.999Z,35.71
2022-07-25T14:47:51.719Z,35.83
2022-07-25T14:50:21.442Z,35.64
2022-07-25T14:52:51.048Z,35.73
2022-07-25T14:55:22.382Z,36.10
2022-07-25T14:57:52.036Z,35.11
2022-07-25T15:00:29.217Z,35.52
2022-07-25T15:02:59.290Z,35.92
2022-07-25T15:05:29.000Z,35.85
2022-07-25T15:07:58.687Z,35.70
2022-07-25T15:10:28.476Z,36.35
2022-07-25T15:13:28.285Z,36.33
2022-07-25T15:15:50.777Z,35.87
2022-07-25T15:18:20.545Z,35.74
2022-07-25T15:20:52.001Z,35.84
2022-07-25T15:23:24.983Z,34.97
2022-07-25T15:26:03.715Z,35.35
2022-07-25T15:28:35.670Z,35.60
2022-07-25T15:31:08.659Z,35.31
2022-07-25T15:33:38.466Z,34.88
2022-07-25T15:36:09.026Z,35.53
2022-07-25T15:38:38.962Z,35.93
2022-07-25T15:41:10.793Z,36.40
2022-07-25T15:43:40.812Z,37.28
2022-07-25T15:46:16.765Z,37.80
2022-07-25T15:48:47.226Z,37.92
2022-07-25T15:51:18.571Z,38.21
2022-07-25T15:53:48.369Z,38.29
2022-07-25T15:56:18.609Z,39.14
2022-07-25T15:58:51.324Z,38.98
2022-07-25T16:01:23.682Z,39.47
2022-07-25T16:03:53.463Z,39.67
2022-07-25T16:06:24.260Z,39.95
2022-07-25T16:08:54.008Z,40.05
2022-07-25T16:11:23.685Z,40.63
2022-07-25T16:13:53.909Z,40.67
2022-07-25T16:16:26.351Z,40.80
2022-07-25T16:18:56.090Z,40.44
2022-07-25T16:21:25.851Z,40.50
2022-07-25T16:23:55.552Z,40.68
2022-07-25T16:26:25.295Z,41.06
2022-07-25T16:29:05.589Z,40.93
2022-07-25T16:31:38.165Z,40.85
2022-07-25T16:34:08.026Z,41.01
2022-07-25T16:36:38.578Z,41.12
2022-07-25T16:39:09.015Z,41.46
2022-07-25T16:41:38.935Z,41.59
2022-07-25T16:44:08.846Z,41.54
2022-07-25T16:46:41.381Z,40.99
2022-07-25T16:49:11.707Z,39.74
2022-07-25T16:51:41.598Z,40.79
2022-07-25T16:54:12.976Z,38.99
2022-07-25T16:56:42.719Z,39.25
2022-07-25T16:59:12.765Z,38.79
2022-07-25T17:01:46.699Z,38.27
2022-07-25T17:04:16.610Z,38.38
2022-07-25T17:06:46.443Z,39.41
2022-07-25T17:09:16.094Z,38.40
2022-07-25T17:11:46.203Z,39.20
2022-07-25T17:14:16.271Z,38.90
2022-07-25T17:16:49.931Z,38.94
2022-07-25T17:19:19.599Z,38.28
2022-07-25T17:21:49.223Z,39.44
2022-07-25T17:24:18.895Z,39.19
2022-07-25T17:26:48.649Z,39.18
2022-07-25T17:29:18.355Z,39.02
2022-07-25T17:31:50.697Z,39.34
2022-07-25T17:34:21.799Z,39.17
2022-07-25T17:36:51.510Z,39.60
2022-07-25T17:39:21.215Z,39.77
2022-07-25T17:41:52.144Z,40.28
2022-07-25T17:44:21.751Z,40.91
2022-07-25T17:46:55.091Z,41.15
2022-07-25T17:49:25.167Z,40.89
2022-07-25T17:51:54.850Z,41.59
2022-07-25T17:54:24.434Z,42.29
2022-07-25T17:56:54.105Z,41.55
2022-07-25T17:59:23.784Z,41.35
2022-07-25T18:01:56.187Z,41.01
2022-07-25T18:04:26.122Z,41.70
2022-07-25T18:06:55.839Z,41.45
2022-07-25T18:09:25.645Z,41.39
2022-07-25T18:11:55.555Z,41.89
2022-07-25T18:14:25.506Z,41.36
2022-07-25T18:16:57.838Z,41.10
2022-07-25T18:19:28.708Z,41.66
2022-07-25T18:21:58.375Z,42.69
2022-07-25T18:24:29.492Z,42.57
2022-07-25T18:26:59.741Z,42.38
2022-07-25T18:29:29.435Z,42.60
2022-07-25T18:32:01.802Z,42.34
2022-07-25T18:34:32.154Z,42.46
2022-07-25T18:37:01.850Z,42.40
2022-07-25T18:39:31.665Z,42.75
2022-07-25T18:42:01.344Z,43.00
2022-07-25T18:44:32.495Z,43.36
2022-07-25T18:47:05.713Z,43.09
2022-07-25T18:49:36.026Z,43.68
2022-07-25T18:52:05.813Z,43.84
2022-07-25T18:54:35.575Z,43.27
2022-07-25T18:57:07.322Z,43.20
2022-07-25T18:59:36.980Z,43.14
2022-07-25T19:02:09.421Z,42.70
2022-07-25T19:04:39.150Z,43.92
2022-07-25T19:07:09.922Z,42.86
2022-07-25T19:09:39.580Z,43.72
2022-07-25T19:12:10.421Z,43.73
2022-07-25T19:14:40.060Z,43.15
2022-07-25T19:17:12.380Z,42.95
2022-07-25T19:19:42.095Z,43.25
2022-07-25T19:22:12.196Z,43.94
2022-07-25T19:24:41.886Z,43.41
2022-07-25T19:27:12.064Z,43.95
2022-07-25T19:29:41.818Z,44.21
2022-07-25T19:32:14.099Z,44.14
2022-07-25T19:34:47.726Z,44.62
2022-07-25T19:37:17.453Z,44.52
2022-07-25T19:39:49.156Z,44.40
2022-07-25T19:42:18.987Z,45.03
2022-07-25T19:44:48.726Z,44.85
2022-07-25T19:47:21.162Z,44.39
2022-07-25T19:49:51.718Z,44.92
2022-07-25T19:52:21.469Z,44.51
2022-07-25T19:54:51.075Z,44.50
2022-07-25T19:57:20.763Z,44.76
2022-07-25T19:59:50.424Z,44.44
2022-07-25T20:02:22.764Z,44.58
2022-07-25T20:04:52.423Z,44.84
2022-07-25T20:07:22.164Z,44.64
2022-07-25T20:09:51.817Z,44.52
2022-07-25T20:12:22.145Z,44.31
2022-07-25T20:14:51.782Z,45.17
2022-07-25T20:17:24.024Z,45.06
2022-07-25T20:19:53.975Z,44.91
2022-07-25T20:22:23.677Z,45.41
2022-07-25T20:24:53.328Z,45.61
2022-07-25T20:27:23.004Z,45.34
2022-07-25T20:29:52.705Z,45.81
2022-07-25T20:32:25.044Z,46.00
2022-07-25T20:34:55.354Z,45.57
2022-07-25T20:37:25.330Z,45.51
2022-07-25T20:39:55.180Z,45.54
2022-07-25T20:42:25.163Z,45.41
2022-07-25T20:44:54.807Z,45.39
2022-07-25T20:47:27.155Z,45.40
2022-07-25T20:49:56.842Z,45.42
2022-07-25T20:52:27.940Z,45.55
2022-07-25T20:54:57.644Z,45.73
2022-07-25T20:57:27.451Z,45.54
2022-07-25T20:59:57.152Z,45.24
2022-07-25T21:02:29.463Z,45.62
2022-07-25T21:04:59.202Z,46.21
2022-07-25T21:07:28.903Z,45.49
2022-07-25T21:09:58.626Z,45.80
2022-07-25T21:12:32.422Z,45.54
2022-07-25T21:15:02.686Z,45.95
2022-07-25T21:17:35.370Z,45.79
2022-07-25T21:20:05.084Z,45.61
2022-07-25T21:22:35.022Z,45.88
2022-07-25T21:25:05.048Z,45.94
2022-07-25T21:27:34.745Z,46.01
2022-07-25T21:30:04.821Z,45.95
2022-07-25T21:32:37.208Z,46.15
2022-07-25T21:35:07.627Z,46.20
2022-07-25T21:37:37.313Z,46.26
2022-07-25T21:40:07.958Z,46.76
2022-07-25T21:42:38.519Z,47.43
2022-07-25T21:45:09.904Z,46.85
2022-07-25T21:47:42.177Z,47.28
2022-07-25T21:50:25.307Z,47.32
2022-07-25T21:52:55.752Z,47.48
2022-07-25T21:55:25.517Z,47.59
2022-07-25T21:57:55.146Z,47.99
2022-07-25T22:00:25.187Z,48.17
2022-07-25T22:02:57.595Z,47.92
2022-07-25T22:05:28.129Z,47.57
2022-07-25T22:07:57.820Z,47.62
2022-07-25T22:10:27.522Z,47.62
2022-07-25T22:12:57.203Z,48.43
2022-07-25T22:15:26.802Z,48.45
2022-07-25T22:17:59.111Z,48.20
2022-07-25T22:20:28.924Z,47.93
2022-07-25T22:22:58.567Z,48.61
2022-07-25T22:25:28.396Z,48.50
2022-07-25T22:27:58.273Z,48.54
2022-07-25T22:30:27.942Z,48.71
2022-07-25T22:33:00.159Z,48.76
2022-07-25T22:35:29.878Z,48.94
2022-07-25T22:37:59.474Z,49.05
2022-07-25T22:40:29.181Z,49.39
2022-07-25T22:42:58.836Z,48.77
2022-07-25T22:45:28.662Z,49.00
2022-07-25T22:48:00.984Z,49.03
2022-07-25T22:50:30.598Z,49.21
2022-07-25T22:53:00.265Z,49.15
2022-07-25T22:55:29.955Z,48.86
2022-07-25T22:57:59.601Z,49.49
2022-07-25T23:00:29.316Z,49.73
2022-07-25T23:03:01.624Z,50.11
2022-07-25T23:05:31.480Z,50.17
2022-07-25T23:08:01.097Z,50.18
2022-07-25T23:10:30.762Z,49.93
2022-07-25T23:13:00.371Z,50.35
2022-07-25T23:15:50.109Z,50.18
2022-07-25T23:18:22.591Z,51.31
2022-07-25T23:20:52.310Z,51.49
2022-07-25T23:23:22.065Z,51.93
2022-07-25T23:25:51.764Z,52.06
2022-07-25T23:28:21.542Z,52.35
2022-07-25T23:30:51.164Z,52.83
2022-07-25T23:33:25.236Z,52.92
2022-07-25T23:35:55.755Z,53.21
2022-07-25T23:38:25.600Z,53.93
2022-07-25T23:40:55.518Z,54.37
2022-07-25T23:43:31.905Z,53.58
2022-07-25T23:46:14.952Z,53.35
2022-07-25T23:48:47.515Z,53.30
2022-07-25T23:51:18.264Z,52.91
2022-07-25T23:53:47.938Z,53.04
2022-07-25T23:56:20.991Z,53.08
2022-07-25T23:58:51.457Z,52.98
